Time;durP1;ratioP1;P1;durP2;ratioP2;P2;SDS_P1;SDS_P2;PMS_P1;PMS_P2;Temp;Humidity;BMP_temperature;BMP_pressure;BME280_temperature;BME280_humidity;BME280_pressure;Samples;Min_cycle;Max_cycle;Signal;HPM_P1;HPM_P2
2021/10/13 00:02:11;;;;;;;3.30;1.35;;;;;;;;;;4979873;28;20039;-65
2021/10/13 00:04:37;;;;;;;8.68;1.58;;;;;;;;;;4981488;28;20031;-65
2021/10/13 00:07:03;;;;;;;2.83;1.27;;;;;;;;;;4981100;28;20065;-65
2021/10/13 00:09:29;;;;;;;6.68;1.40;;;;;;;;;;4982178;28;20091;-65
2021/10/13 00:11:55;;;;;;;5.35;1.52;;;;;;;;;;4982133;28;20156;-64
2021/10/13 00:14:21;;;;;;;3.85;1.42;;;;;;;;;;4980657;28;20049;-65
2021/10/13 00:16:56;;;;;;;2.50;1.40;;;;;;;;;;4981866;28;20042;-65
2021/10/13 00:19:22;;;;;;;4.97;1.50;;;4.50;99.90;;;;;;4981167;28;20062;-65
2021/10/13 00:21:48;;;;;;;5.95;1.48;;;;;;;;;;4988450;28;20030;-65
2021/10/13 00:24:14;;;;;;;7.78;1.20;;;;;;;;;;4980637;28;20019;-65
2021/10/13 00:26:40;;;;;;;6.45;1.20;;;;;;;;;;4981379;28;20077;-65
2021/10/13 00:29:05;;;;;;;4.13;1.48;;;4.70;99.90;;;;;;4979834;28;20073;-65
2021/10/13 00:31:31;;;;;;;5.93;1.20;;;;;;;;;;4980466;28;20852;-63
2021/10/13 00:33:57;;;;;;;4.97;1.15;;;;;;;;;;4996225;28;20042;-63
2021/10/13 00:36:23;;;;;;;2.55;1.27;;;4.50;99.90;;;;;;4985228;28;20427;-63
2021/10/13 00:38:48;;;;;;;3.40;2.17;;;4.60;99.90;;;;;;4980796;28;20433;-64
2021/10/13 00:41:14;;;;;;;2.25;1.50;;;4.40;99.90;;;;;;4981926;28;20038;-63
2021/10/13 00:43:39;;;;;;;7.53;2.15;;;4.40;99.90;;;;;;4981306;28;20038;-63
2021/10/13 00:46:06;;;;;;;2.13;1.40;;;4.50;99.90;;;;;;4981109;28;20109;-63
2021/10/13 00:48:31;;;;;;;16.38;1.90;;;;;;;;;;4982590;28;20089;-63
2021/10/13 00:50:57;;;;;;;4.10;1.50;;;4.40;99.90;;;;;;5000197;28;20813;-63
2021/10/13 00:53:23;;;;;;;4.47;1.80;;;;;;;;;;4984171;28;20041;-63
2021/10/13 00:55:52;;;;;;;6.72;1.85;;;;;;;;;;4984682;28;20066;-63
2021/10/13 00:58:18;;;;;;;4.72;1.60;;;;;;;;;;4993292;28;20031;-64
2021/10/13 01:00:44;;;;;;;4.50;1.88;;;;;;;;;;4984174;28;20391;-63
2021/10/13 01:03:10;;;;;;;5.63;1.90;;;;;;;;;;4984926;28;20066;-63
2021/10/13 01:05:36;;;;;;;4.82;1.70;;;;;;;;;;4985036;28;20843;-63
2021/10/13 01:08:02;;;;;;;5.80;1.70;;;;;;;;;;4984081;28;20039;-63
2021/10/13 01:10:28;;;;;;;3.60;1.85;;;;;;;;;;4985427;28;20069;-63
2021/10/13 01:12:54;;;;;;;3.63;1.80;;;;;;;;;;4985163;28;20042;-63
2021/10/13 01:15:20;;;;;;;7.97;1.90;;;;;;;;;;4983763;28;20045;-64
2021/10/13 01:17:45;;;;;;;5.82;1.80;;;;;;;;;;4984107;28;20085;-63
2021/10/13 01:20:13;;;;;;;4.05;1.38;;;;;;;;;;4983812;28;20062;-63
2021/10/13 01:22:39;;;;;;;2.17;1.23;;;;;;;;;;4984296;28;20057;-63
2021/10/13 01:25:05;;;;;;;3.85;1.77;;;;;;;;;;4984472;28;20851;-63
2021/10/13 01:27:31;;;;;;;5.32;1.60;;;;;;;;;;4983106;28;20038;-63
2021/10/13 01:29:57;;;;;;;4.45;1.70;;;;;;;;;;4984339;28;20072;-63
2021/10/13 01:32:23;;;;;;;5.07;1.73;;;;;;;;;;4984552;28;20019;-63
2021/10/13 01:34:49;;;;;;;4.53;1.70;;;;;;;;;;4983856;28;20409;-63
2021/10/13 01:37:15;;;;;;;6.82;1.83;;;;;;;;;;4983211;28;20044;-63
2021/10/13 01:39:41;;;;;;;4.30;1.70;;;;;;;;;;4990803;28;20025;-63
2021/10/13 01:42:07;;;;;;;2.55;1.65;;;;;;;;;;4983798;28;20117;-63
2021/10/13 01:44:33;;;;;;;7.03;2.00;;;;;;;;;;4982979;28;20113;-63
2021/10/13 01:46:59;;;;;;;4.20;1.58;;;;;;;;;;4990083;28;20497;-63
2021/10/13 01:49:25;;;;;;;5.25;1.80;;;;;;;;;;4983239;28;20034;-63
2021/10/13 01:51:51;;;;;;;3.42;1.73;;;;;;;;;;4983267;28;20386;-63
2021/10/13 01:54:17;;;;;;;5.45;1.60;;;;;;;;;;4983298;28;20027;-63
2021/10/13 01:56:43;;;;;;;5.10;1.80;;;;;;;;;;4981966;28;20049;-63
2021/10/13 01:59:09;;;;;;;7.25;1.95;;;;;;;;;;4989459;28;20081;-63
2021/10/13 02:01:35;;;;;;;6.90;2.28;;;;;;;;;;4989960;28;20072;-63
2021/10/13 02:04:01;;;;;;;9.38;2.60;;;;;;;;;;4983823;28;20038;-66
2021/10/13 02:06:27;;;;;;;5.82;2.90;;;;;;;;;;4982898;28;20038;-63
2021/10/13 02:08:53;;;;;;;11.23;2.53;;;;;;;;;;4996442;28;20122;-63
2021/10/13 02:11:19;;;;;;;7.55;2.40;;;;;;;;;;4983140;28;20076;-66
2021/10/13 02:13:45;;;;;;;7.00;2.55;;;;;;;;;;4997765;28;20069;-63
2021/10/13 02:16:11;;;;;;;8.55;2.92;;;;;;;;;;4983839;28;20030;-63
2021/10/13 02:18:36;;;;;;;7.85;2.35;;;4.00;99.90;;;;;;4974106;28;20034;-63
2021/10/13 02:21:02;;;;;;;3.67;2.10;;;4.10;99.90;;;;;;4982378;28;20557;-65
2021/10/13 02:23:27;;;;;;;4.70;2.13;;;;;;;;;;4982573;28;20434;-63
2021/10/13 02:25:53;;;;;;;4.20;2.03;;;4.00;99.90;;;;;;4982141;28;20061;-63
2021/10/13 02:28:19;;;;;;;4.03;1.88;;;;;;;;;;4989992;28;20154;-63
2021/10/13 02:30:45;;;;;;;6.47;2.05;;;;;;;;;;4982722;28;20037;-66
2021/10/13 02:33:11;;;;;;;5.93;2.25;;;;;;;;;;4982141;28;20030;-63
2021/10/13 02:35:37;;;;;;;3.33;2.13;;;;;;;;;;4981025;28;20449;-63
2021/10/13 02:38:02;;;;;;;6.88;2.83;;;4.00;99.90;;;;;;4981388;28;20038;-63
2021/10/13 02:40:28;;;;;;;10.65;2.55;;;;;;;;;;4982919;28;20027;-63
2021/10/13 02:42:54;;;;;;;7.38;2.40;;;;;;;;;;4983368;28;20042;-63
2021/10/13 02:45:20;;;;;;;5.22;2.00;;;;;;;;;;4984124;28;20034;-63
2021/10/13 02:47:46;;;;;;;4.65;2.10;;;;;;;;;;4981880;28;20062;-66
2021/10/13 02:50:12;;;;;;;9.07;2.38;;;;;;;;;;4982890;28;20078;-66
2021/10/13 02:52:38;;;;;;;12.45;2.78;;;4.00;99.90;;;;;;4984036;28;20557;-63
2021/10/13 02:55:03;;;;;;;3.55;2.15;;;3.90;99.90;;;;;;4990805;28;20034;-63
2021/10/13 02:57:29;;;;;;;7.13;2.50;;;3.80;99.90;;;;;;4982356;28;20046;-63
2021/10/13 02:59:55;;;;;;;4.47;2.25;;;;;;;;;;4984344;28;20561;-63
2021/10/13 03:02:20;;;;;;;5.65;2.65;;;3.80;99.90;;;;;;4984000;28;20525;-63
2021/10/13 03:04:47;;;;;;;10.73;2.47;;;;;;;;;;4982930;28;20423;-63
2021/10/13 03:07:13;;;;;;;5.47;2.92;;;3.80;99.90;;;;;;4983004;28;20109;-63
2021/10/13 03:09:39;;;;;;;5.35;2.60;;;;;;;;;;4983611;28;20034;-63
2021/10/13 03:12:04;;;;;;;6.50;2.60;;;3.80;99.90;;;;;;4970904;28;20542;-63
2021/10/13 03:14:30;;;;;;;6.47;2.53;;;3.70;99.90;;;;;;4983223;28;20556;-63
2021/10/13 03:16:55;;;;;;;4.82;2.90;;;3.40;99.90;;;;;;4982942;28;20030;-63
2021/10/13 03:19:21;;;;;;;8.32;2.67;;;3.70;99.90;;;;;;4982417;28;20592;-63
2021/10/13 03:21:46;;;;;;;7.18;3.05;;;4.10;99.90;;;;;;4989772;28;20045;-64
2021/10/13 03:24:12;;;;;;;8.15;3.17;;;5.60;99.90;;;;;;4982863;28;20177;-63
2021/10/13 03:26:38;;;;;;;11.00;3.60;;;;;;;;;;4983437;28;20030;-63
2021/10/13 03:29:04;;;;;;;10.27;2.80;;;;;;;;;;4982158;28;20065;-64
2021/10/13 03:31:29;;;;;;;5.28;3.20;;;3.70;99.90;;;;;;4983027;28;20074;-63
2021/10/13 03:33:55;;;;;;;7.57;3.55;;;;;;;;;;4982658;28;20093;-63
2021/10/13 03:36:21;;;;;;;7.05;3.45;;;;;;;;;;4981940;28;20042;-63
2021/10/13 03:38:47;;;;;;;6.80;3.13;;;;;;;;;;4981989;28;20402;-63
2021/10/13 03:41:13;;;;;;;6.32;3.45;;;;;;;;;;4980352;28;20406;-63
2021/10/13 03:43:38;;;;;;;7.15;3.53;;;3.70;99.90;;;;;;4980736;28;20444;-63
2021/10/13 03:46:04;;;;;;;6.88;4.03;;;3.90;99.90;;;;;;4996156;28;20529;-64
2021/10/13 03:48:30;;;;;;;9.40;3.80;;;3.70;99.90;;;;;;4979370;28;20034;-63
2021/10/13 03:50:56;;;;;;;6.05;3.40;;;3.40;99.90;;;;;;4980655;28;20176;-63
2021/10/13 03:53:21;;;;;;;11.05;4.25;;;3.60;99.90;;;;;;4981609;28;20133;-63
2021/10/13 03:55:47;;;;;;;9.00;4.18;;;3.60;99.90;;;;;;4981503;28;20402;-63
2021/10/13 03:58:12;;;;;;;8.35;3.95;;;3.50;99.90;;;;;;4981048;28;20045;-63
2021/10/13 04:00:38;;;;;;;9.43;4.40;;;3.60;99.90;;;;;;4979963;28;20030;-63
2021/10/13 04:03:04;;;;;;;8.93;4.13;;;;;;;;;;4980148;28;20034;-63
2021/10/13 04:05:29;;;;;;;8.55;4.63;;;3.60;99.90;;;;;;4969489;28;20037;-63
2021/10/13 04:07:55;;;;;;;10.13;4.25;;;;;;;;;;4991001;28;20027;-63
2021/10/13 04:10:21;;;;;;;8.52;4.30;;;;;;;;;;4987614;28;20038;-64
2021/10/13 04:12:47;;;;;;;14.80;4.75;;;;;;;;;;4981607;28;20038;-63
2021/10/13 04:15:14;;;;;;;8.55;4.38;;;;;;;;;;4979402;28;20073;-63
2021/10/13 04:17:40;;;;;;;7.00;3.83;;;;;;;;;;4978783;28;20045;-63
2021/10/13 04:20:06;;;;;;;13.23;4.60;;;;;;;;;;4980646;28;20031;-63
2021/10/13 04:22:31;;;;;;;12.43;4.93;;;3.80;99.90;;;;;;4982108;28;20030;-63
2021/10/13 04:24:57;;;;;;;11.25;5.13;;;;;;;;;;4985509;28;20038;-63
2021/10/13 04:27:23;;;;;;;10.55;4.82;;;;;;;;;;4982036;28;20069;-63
2021/10/13 04:29:49;;;;;;;12.35;5.80;;;;;;;;;;4984438;28;20030;-63
2021/10/13 04:32:17;;;;;;;19.17;6.00;;;;;;;;;;4983724;28;20133;-63
2021/10/13 04:34:43;;;;;;;8.60;5.57;;;;;;;;;;4982901;28;20042;-63
2021/10/13 04:37:09;;;;;;;13.48;6.38;;;;;;;;;;4987579;28;20038;-63
2021/10/13 04:39:35;;;;;;;13.05;6.28;;;;;;;;;;4987706;28;20042;-66
2021/10/13 04:42:01;;;;;;;13.95;5.93;;;;;;;;;;4981849;28;20065;-66
2021/10/13 04:44:27;;;;;;;11.90;5.57;;;;;;;;;;4983402;28;20093;-63
2021/10/13 04:46:53;;;;;;;11.25;6.07;;;;;;;;;;4985133;28;20031;-63
2021/10/13 04:49:19;;;;;;;12.63;5.47;;;;;;;;;;4983379;28;20505;-63
2021/10/13 04:51:45;;;;;;;13.40;6.45;;;;;;;;;;4983250;28;20039;-63
2021/10/13 04:54:11;;;;;;;12.55;5.47;;;;;;;;;;4992520;28;20042;-63
2021/10/13 04:56:38;;;;;;;17.27;6.07;;;;;;;;;;4983786;28;20521;-63
2021/10/13 04:59:04;;;;;;;13.38;6.32;;;;;;;;;;4991020;28;20082;-63
2021/10/13 05:01:30;;;;;;;13.30;5.55;;;;;;;;;;4984251;28;20034;-63
2021/10/13 05:03:56;;;;;;;13.52;6.15;;;;;;;;;;4981744;28;20034;-62
2021/10/13 05:06:22;;;;;;;14.70;6.53;;;;;;;;;;4984167;28;20089;-63
2021/10/13 05:08:47;;;;;;;13.32;5.72;;;;;;;;;;4979424;28;20056;-63
2021/10/13 05:11:13;;;;;;;15.43;6.13;;;;;;;;;;4981305;28;20030;-63
2021/10/13 05:13:39;;;;;;;17.30;6.70;;;;;;;;;;4981871;28;20030;-63
2021/10/13 05:16:05;;;;;;;16.58;6.88;;;;;;;;;;4981891;28;20030;-63
2021/10/13 05:18:31;;;;;;;18.88;7.03;;;3.40;99.90;;;;;;4983716;28;20030;-63
2021/10/13 05:20:57;;;;;;;16.42;6.50;;;;;;;;;;4986314;28;20680;-63
2021/10/13 05:23:22;;;;;;;14.75;7.18;;;3.30;99.90;;;;;;4983749;28;20034;-63
2021/10/13 05:25:48;;;;;;;16.20;6.43;;;3.30;99.90;;;;;;4984509;28;20849;-63
2021/10/13 05:28:14;;;;;;;14.55;6.28;;;;;;;;;;4982513;28;20061;-63
2021/10/13 05:30:40;;;;;;;18.35;6.68;;;;;;;;;;4981142;28;20030;-63
2021/10/13 05:33:06;;;;;;;14.05;6.40;;;;;;;;;;4980907;28;20034;-63
2021/10/13 05:35:32;;;;;;;12.90;6.25;;;;;;;;;;4982205;28;20885;-63
2021/10/13 05:37:57;;;;;;;17.05;6.70;;;3.10;99.90;;;;;;4983822;28;20111;-63
2021/10/13 05:40:23;;;;;;;14.35;6.75;;;;;;;;;;4980911;28;20027;-63
2021/10/13 05:42:49;;;;;;;14.88;6.45;;;;;;;;;;4980707;28;20671;-63
2021/10/13 05:45:15;;;;;;;18.75;7.03;;;;;;;;;;4981753;28;20405;-66
2021/10/13 05:47:41;;;;;;;17.35;6.45;;;;;;;;;;4981648;28;20019;-63
2021/10/13 05:50:07;;;;;;;17.67;6.93;;;;;;;;;;4980682;28;20394;-63
2021/10/13 05:52:33;;;;;;;18.38;7.00;;;;;;;;;;4981960;28;20026;-63
2021/10/13 05:54:59;;;;;;;18.15;6.28;;;;;;;;;;4981959;28;20112;-67
2021/10/13 05:57:25;;;;;;;20.00;7.25;;;;;;;;;;4980680;28;20034;-63
2021/10/13 05:59:58;;;;;;;22.45;7.20;;;3.40;99.90;;;;;;4998082;28;20174;-63
2021/10/13 06:02:24;;;;;;;21.48;7.70;;;3.40;99.90;;;;;;4997543;28;20027;-63
2021/10/13 06:04:49;;;;;;;24.85;8.43;;;3.50;99.90;;;;;;4983710;28;20030;-63
2021/10/13 06:07:15;;;;;;;21.88;7.53;;;3.50;99.90;;;;;;4983643;28;20517;-63
2021/10/13 06:09:41;;;;;;;24.10;8.45;;;;;;;;;;4989186;28;20042;-63
2021/10/13 06:12:07;;;;;;;22.02;8.23;;;;;;;;;;4984004;28;20030;-63
2021/10/13 06:14:32;;;;;;;23.85;8.23;;;3.70;99.90;;;;;;4990072;28;20109;-63
2021/10/13 06:16:58;;;;;;;26.00;9.02;;;;;;;;;;4984761;28;20684;-63
2021/10/13 06:19:24;;;;;;;27.00;8.85;;;;;;;;;;4985308;28;20591;-63
2021/10/13 06:21:50;;;;;;;26.52;9.25;;;;;;;;;;4984236;28;20455;-63
2021/10/13 06:24:16;;;;;;;34.55;9.05;;;;;;;;;;4980459;28;20038;-63
2021/10/13 06:26:42;;;;;;;28.80;9.48;;;;;;;;;;4982982;28;20121;-63
2021/10/13 06:29:09;;;;;;;39.65;10.52;;;;;;;;;;4982121;28;20056;-63
2021/10/13 06:31:35;;;;;;;44.60;11.20;;;;;;;;;;4983338;28;20042;-63
2021/10/13 06:34:01;;;;;;;37.25;10.50;;;;;;;;;;4980890;28;20042;-63
2021/10/13 06:36:27;;;;;;;39.08;10.30;;;;;;;;;;4980066;28;20135;-63
2021/10/13 06:38:53;;;;;;;50.78;14.10;;;;;;;;;;4980246;28;20031;-63
2021/10/13 06:41:20;;;;;;;41.35;13.07;;;;;;;;;;4980312;28;20045;-65
2021/10/13 06:43:46;;;;;;;50.45;12.75;;;;;;;;;;4990830;28;20403;-63
2021/10/13 06:46:12;;;;;;;49.20;13.18;;;;;;;;;;4980367;28;20031;-63
2021/10/13 06:48:38;;;;;;;46.70;12.48;;;;;;;;;;4979946;28;20053;-63
2021/10/13 06:51:04;;;;;;;50.10;12.38;;;;;;;;;;4979812;28;20042;-64
2021/10/13 06:53:30;;;;;;;44.22;11.20;;;;;;;;;;4982015;28;20080;-63
2021/10/13 06:55:56;;;;;;;34.97;11.90;;;;;;;;;;4982507;28;20026;-63
2021/10/13 06:58:22;;;;;;;42.45;12.85;;;;;;;;;;4988093;28;20494;-63
2021/10/13 07:00:48;;;;;;;42.03;12.85;;;5.90;99.90;;;;;;4982610;28;20041;-64
2021/10/13 07:03:14;;;;;;;42.13;13.13;;;;;;;;;;4979841;28;20084;-63
2021/10/13 07:05:39;;;;;;;44.47;14.98;;;;;;;;;;4982466;28;20411;-63
2021/10/13 07:08:05;;;;;;;27.63;11.00;;;;;;;;;;4980812;28;20034;-63
2021/10/13 07:10:31;;;;;;;21.38;9.38;;;;;;;;;;4981191;28;20505;-63
2021/10/13 07:12:57;;;;;;;18.70;8.15;;;;;;;;;;4982881;28;20034;-63
2021/10/13 07:15:23;;;;;;;15.18;6.78;;;;;;;;;;4980970;28;20129;-63
2021/10/13 07:17:49;;;;;;;13.07;6.22;;;;;;;;;;4981853;28;20088;-63
2021/10/13 07:20:15;;;;;;;13.05;5.88;;;;;;;;;;4982495;28;20067;-63
2021/10/13 07:22:41;;;;;;;10.48;5.90;;;;;;;;;;4982007;28;20041;-63
2021/10/13 07:25:07;;;;;;;10.43;5.47;;;;;;;;;;4981281;28;20030;-63
2021/10/13 07:27:33;;;;;;;15.60;5.30;;;;;;;;;;4979647;28;20079;-63
2021/10/13 07:30:01;;;;;;;11.95;5.30;;;;;;;;;;4982890;28;20477;-63
2021/10/13 07:32:27;;;;;;;8.13;4.55;;;;;;;;;;4981277;28;20046;-63
2021/10/13 07:34:53;;;;;;;9.45;5.00;;;;;;;;;;4980974;28;20088;-63
2021/10/13 07:37:19;;;;;;;9.20;5.10;;;8.70;99.90;;;;;;4983625;28;20105;-63
2021/10/13 07:39:44;;;;;;;7.55;4.20;;;;;;;;;;4987920;28;20119;-63
2021/10/13 07:42:11;;;;;;;7.57;4.53;;;;;;;;;;4980115;28;20030;-64
2021/10/13 07:44:37;;;;;;;10.18;4.82;;;;;;;;;;4981273;28;20557;-63
2021/10/13 07:47:03;;;;;;;9.98;4.20;;;;;;;;;;4979484;28;20033;-63
2021/10/13 07:49:28;;;;;;;8.57;4.35;;;9.90;99.90;;;;;;4982172;28;20030;-63
2021/10/13 07:51:54;;;;;;;8.20;4.35;;;9.70;99.90;;;;;;4981972;28;20132;-64
2021/10/13 07:54:20;;;;;;;8.35;4.20;;;9.60;99.90;;;;;;4983331;28;20050;-63
2021/10/13 07:56:46;;;;;;;7.10;3.95;;;9.50;99.90;;;;;;4974899;28;20176;-63
2021/10/13 07:59:11;;;;;;;6.55;4.07;;;9.60;99.90;;;;;;4977607;28;20490;-64
2021/10/13 08:01:37;;;;;;;6.45;3.83;;;9.70;99.90;;;;;;4984915;28;20034;-64
2021/10/13 08:04:03;;;;;;;6.55;4.05;;;9.70;99.90;;;;;;4981387;28;20783;-64
2021/10/13 08:06:28;;;;;;;9.45;4.00;;;9.70;99.90;;;;;;4981310;28;20036;-64
2021/10/13 08:08:54;;;;;;;6.88;4.43;;;9.80;99.90;;;;;;4978857;28;20034;-63
2021/10/13 08:11:19;;;;;;;9.85;3.78;;;10.00;99.90;;;;;;4988310;28;20134;-64
2021/10/13 08:13:45;;;;;;;8.18;3.70;;;10.20;99.90;;;;;;4979661;28;20065;-63
2021/10/13 08:16:10;;;;;;;11.25;3.33;;;10.40;99.90;;;;;;4979857;28;20118;-64
2021/10/13 08:18:36;;;;;;;9.48;3.50;;;10.40;99.90;;;;;;4976221;28;20038;-63
2021/10/13 08:21:01;;;;;;;5.80;3.53;;;10.40;99.90;;;;;;4980800;28;20042;-64
2021/10/13 08:23:27;;;;;;;7.63;4.13;;;10.50;99.90;;;;;;4978750;28;20023;-64
2021/10/13 08:25:55;;;;;;;9.63;3.90;;;10.70;99.90;;;;;;4980190;28;20026;-63
2021/10/13 08:28:20;;;;;;;7.00;3.55;;;10.90;99.90;;;;;;4980796;28;20034;-63
2021/10/13 08:30:46;;;;;;;8.75;4.10;;;10.90;99.90;;;;;;4980321;28;20096;-63
2021/10/13 08:33:12;;;;;;;10.35;4.07;;;;;;;;;;4980953;28;20045;-64
2021/10/13 08:35:38;;;;;;;11.15;5.45;;;;;;;;;;4981600;28;20034;-64
2021/10/13 08:38:04;;;;;;;7.75;3.53;;;;;;;;;;4985724;28;20048;-64
2021/10/13 08:40:31;;;;;;;6.95;3.20;;;;;;;;;;4981302;28;20081;-64
2021/10/13 08:42:57;;;;;;;7.22;3.50;;;;;;;;;;4978840;28;20030;-64
2021/10/13 08:45:23;;;;;;;6.03;3.10;;;;;;;;;;4980103;28;20027;-64
2021/10/13 08:47:49;;;;;;;8.43;3.58;;;;;;;;;;4980399;28;20497;-64
2021/10/13 08:50:15;;;;;;;7.82;3.38;;;;;;;;;;4980915;28;20080;-64
2021/10/13 08:52:41;;;;;;;7.40;3.35;;;;;;;;;;4971522;28;20034;-68
2021/10/13 08:55:12;;;;;;;5.88;3.30;;;;;;;;;;4981834;28;20038;-68
2021/10/13 08:57:38;;;;;;;9.60;3.67;;;;;;;;;;4974282;28;20030;-68
2021/10/13 09:00:04;;;;;;;6.85;3.20;;;;;;;;;;4980818;28;20876;-68
2021/10/13 09:02:30;;;;;;;6.85;3.75;;;;;;;;;;4980644;28;20038;-68
2021/10/13 09:04:56;;;;;;;6.57;3.65;;;;;;;;;;4980862;28;20037;-68
2021/10/13 09:07:22;;;;;;;6.28;3.25;;;;;;;;;;4980593;28;20896;-68
2021/10/13 09:09:48;;;;;;;5.88;3.15;;;;;;;;;;4981899;28;20642;-68
2021/10/13 09:12:17;;;;;;;6.68;3.58;;;;;;;;;;4983435;28;20074;-68
2021/10/13 09:14:43;;;;;;;7.35;3.75;;;;;;;;;;4983810;28;20475;-68
2021/10/13 09:17:10;;;;;;;8.23;3.60;;;;;;;;;;4981601;28;20484;-68
2021/10/13 09:19:36;;;;;;;9.40;4.18;;;;;;;;;;4984832;28;20474;-68
2021/10/13 09:22:02;;;;;;;7.35;4.35;;;;;;;;;;4982749;28;20037;-68
2021/10/13 09:24:28;;;;;;;7.68;4.10;;;;;;;;;;4983879;28;20510;-68
2021/10/13 09:26:54;;;;;;;8.48;3.88;;;;;;;;;;4983962;28;20034;-68
2021/10/13 09:29:20;;;;;;;7.40;4.40;;;;;;;;;;4980881;28;20049;-67
2021/10/13 09:31:46;;;;;;;8.77;4.30;;;;;;;;;;4991068;28;20038;-68
2021/10/13 09:34:12;;;;;;;8.43;4.60;;;;;;;;;;4990702;28;20173;-68
2021/10/13 09:36:38;;;;;;;7.05;4.70;;;;;;;;;;4983591;28;20545;-68
2021/10/13 09:39:04;;;;;;;7.18;4.57;;;;;;;;;;4983039;28;20121;-68
2021/10/13 09:41:30;;;;;;;8.25;4.65;;;;;;;;;;4983230;28;20800;-68
2021/10/13 09:43:56;;;;;;;9.02;5.10;;;;;;;;;;4961831;28;20026;-68
2021/10/13 09:46:23;;;;;;;11.32;5.10;;;;;;;;;;4982901;28;20081;-68
2021/10/13 09:48:49;;;;;;;8.65;5.45;;;;;;;;;;4994854;28;20030;-68
2021/10/13 09:51:15;;;;;;;11.32;4.90;;;;;;;;;;4982443;28;20042;-68
2021/10/13 09:53:41;;;;;;;6.80;4.65;;;;;;;;;;4981960;28;20034;-68
2021/10/13 09:56:07;;;;;;;9.18;4.88;;;;;;;;;;4983209;28;20030;-68
2021/10/13 09:58:34;;;;;;;7.78;4.70;;;;;;;;;;4982714;28;20034;-68
2021/10/13 10:01:00;;;;;;;8.70;4.75;;;;;;;;;;4982522;28;20038;-68
2021/10/13 10:03:26;;;;;;;12.30;5.38;;;;;;;;;;4983396;28;20026;-68
2021/10/13 10:05:52;;;;;;;11.02;4.55;;;;;;;;;;4982718;28;20038;-68
2021/10/13 10:08:18;;;;;;;10.95;4.60;;;;;;;;;;4997796;28;20072;-68
2021/10/13 10:10:44;;;;;;;10.07;4.47;;;;;;;;;;4983474;28;20038;-67
2021/10/13 10:13:10;;;;;;;7.65;4.78;;;;;;;;;;4982790;28;20061;-68
2021/10/13 10:15:36;;;;;;;8.63;4.53;;;;;;;;;;4983351;28;20038;-68
2021/10/13 10:18:02;;;;;;;8.20;4.10;;;;;;;;;;4991607;28;20125;-68
2021/10/13 10:20:28;;;;;;;9.15;4.53;;;;;;;;;;4983708;28;20034;-68
2021/10/13 10:22:54;;;;;;;6.75;4.25;;;;;;;;;;4984826;28;20080;-68
2021/10/13 10:25:20;;;;;;;9.55;4.85;;;;;;;;;;4993680;28;20038;-68
2021/10/13 10:27:46;;;;;;;11.23;4.30;;;;;;;;;;4983738;28;20036;-68
2021/10/13 10:30:12;;;;;;;6.97;3.88;;;;;;;;;;4983294;28;20042;-67
2021/10/13 10:32:38;;;;;;;8.27;3.90;;;12.30;99.90;;;;;;4983126;28;20398;-68
2021/10/13 10:35:04;;;;;;;8.30;4.03;;;;;;;;;;4981377;28;20026;-68
2021/10/13 10:37:30;;;;;;;6.55;4.13;;;;;;;;;;4981980;28;20052;-68
2021/10/13 10:39:56;;;;;;;5.93;3.63;;;;;;;;;;4981670;28;20237;-68
2021/10/13 10:42:22;;;;;;;9.05;4.75;;;;;;;;;;4989399;28;20185;-68
2021/10/13 10:44:48;;;;;;;6.85;3.60;;;;;;;;;;4981227;28;20066;-68
2021/10/13 10:47:14;;;;;;;6.65;3.42;;;;;;;;;;4982244;28;20170;-68
2021/10/13 10:49:40;;;;;;;7.47;3.17;;;;;;;;;;4982299;28;20030;-68
2021/10/13 10:52:06;;;;;;;7.13;3.67;;;;;;;;;;4981471;28;20038;-68
2021/10/13 10:54:32;;;;;;;7.35;3.38;;;;;;;;;;4982586;28;20023;-68
2021/10/13 10:56:59;;;;;;;7.22;3.97;;;;;;;;;;4982894;28;20913;-68
2021/10/13 10:59:24;;;;;;;7.63;3.88;;;;;;;;;;4983614;28;20406;-68
2021/10/13 11:01:50;;;;;;;6.28;3.60;;;;;;;;;;4983893;28;20022;-68
2021/10/13 11:04:16;;;;;;;6.65;3.83;;;;;;;;;;4983383;28;20655;-68
2021/10/13 11:06:42;;;;;;;7.80;4.00;;;;;;;;;;4983063;28;20462;-68
2021/10/13 11:09:08;;;;;;;6.88;3.80;;;;;;;;;;4983070;28;20144;-68
2021/10/13 11:11:34;;;;;;;7.43;3.25;;;;;;;;;;4973592;28;20034;-68
2021/10/13 11:14:01;;;;;;;5.85;3.90;;;;;;;;;;4986359;28;20076;-68
2021/10/13 11:16:26;;;;;;;6.10;3.47;;;;;;;;;;4982395;28;20113;-68
2021/10/13 11:18:52;;;;;;;6.20;3.60;;;;;;;;;;4982299;28;20796;-68
2021/10/13 11:21:18;;;;;;;5.40;3.42;;;;;;;;;;4982568;28;20434;-68
2021/10/13 11:23:44;;;;;;;7.97;4.13;;;;;;;;;;4981116;28;20517;-68
2021/10/13 11:26:10;;;;;;;7.53;4.15;;;;;;;;;;4991910;28;20038;-68
2021/10/13 11:28:36;;;;;;;8.55;4.15;;;;;;;;;;4989169;28;20026;-68
2021/10/13 11:31:02;;;;;;;5.82;3.13;;;;;;;;;;4982781;28;20041;-68
2021/10/13 11:33:28;;;;;;;4.50;3.17;;;;;;;;;;4989506;28;20038;-68
2021/10/13 11:35:54;;;;;;;5.72;2.85;;;;;;;;;;4981848;28;20045;-68
2021/10/13 11:38:20;;;;;;;13.77;7.22;;;;;;;;;;4980991;28;20038;-67
2021/10/13 11:40:46;;;;;;;5.50;3.55;;;;;;;;;;4982373;28;20030;-68
2021/10/13 11:43:13;;;;;;;4.95;2.80;;;;;;;;;;4981136;28;20042;-68
2021/10/13 11:45:39;;;;;;;7.13;2.88;;;;;;;;;;4997222;28;20030;-70
2021/10/13 11:48:05;;;;;;;6.55;3.17;;;;;;;;;;4981863;28;20081;-69
2021/10/13 11:50:31;;;;;;;4.65;3.00;;;;;;;;;;4981188;28;20038;-68
2021/10/13 11:52:57;;;;;;;4.38;2.70;;;;;;;;;;4982032;28;20034;-68
2021/10/13 11:55:28;;;;;;;4.55;2.60;;;;;;;;;;4981514;28;20502;-68
2021/10/13 11:57:54;;;;;;;4.85;3.00;;;;;;;;;;4996546;28;20034;-68
2021/10/13 12:00:20;;;;;;;6.55;2.90;;;;;;;;;;4982585;28;20049;-69
2021/10/13 12:02:46;;;;;;;8.68;3.58;;;;;;;;;;4981166;28;20161;-68
2021/10/13 12:05:12;;;;;;;4.40;2.83;;;;;;;;;;4981833;28;20125;-70
2021/10/13 12:07:38;;;;;;;11.27;2.92;;;;;;;;;;4980688;28;20038;-68
2021/10/13 12:10:04;;;;;;;5.50;2.80;;;;;;;;;;4981949;28;20038;-69
2021/10/13 12:12:30;;;;;;;4.72;3.33;;;;;;;;;;4972949;28;20034;-68
2021/10/13 12:14:56;;;;;;;11.68;4.05;;;;;;;;;;4988867;28;20034;-68
2021/10/13 12:17:21;;;;;;;5.18;3.08;;;14.20;99.90;;;;;;4980920;28;20410;-69
2021/10/13 12:19:47;;;;;;;56.33;45.78;;;;;;;;;;4981059;28;20034;-69
2021/10/13 12:22:13;;;;;;;71.97;55.13;;;;;;;;;;4981144;28;20027;-68
2021/10/13 12:24:39;;;;;;;17.20;5.47;;;;;;;;;;4990562;28;20117;-68
2021/10/13 12:27:05;;;;;;;148.20;18.42;;;;;;;;;;4979933;28;20042;-68
2021/10/13 12:29:31;;;;;;;82.05;10.23;;;;;;;;;;4985637;28;20049;-68
2021/10/13 12:31:57;;;;;;;92.13;11.15;;;;;;;;;;4981069;28;20046;-68
2021/10/13 12:34:24;;;;;;;4.95;3.10;;;14.80;99.90;;;;;;4970296;28;20035;-68
2021/10/13 12:36:52;;;;;;;11.90;5.07;;;14.50;99.90;;;;;;4980012;28;20069;-68
2021/10/13 12:39:18;;;;;;;12.93;6.30;;;;;;;;;;4979562;28;20037;-68
2021/10/13 12:41:44;;;;;;;5.53;2.72;;;;;;;;;;4979721;28;20381;-68
2021/10/13 12:44:10;;;;;;;10.82;5.80;;;13.70;99.90;;;;;;4981931;28;20037;-68
2021/10/13 12:46:36;;;;;;;15.07;7.40;;;;;;;;;;4984087;28;20076;-67
2021/10/13 12:49:02;;;;;;;10.20;5.65;;;;;;;;;;4984937;28;20034;-66
2021/10/13 12:51:27;;;;;;;13.13;6.57;;;;;;;;;;4984597;28;20541;-66
2021/10/13 12:53:53;;;;;;;16.42;8.75;;;14.20;98.70;;;;;;4985011;28;20062;-66
2021/10/13 12:56:20;;;;;;;55.30;16.83;;;14.30;99.10;;;;;;4992307;28;20041;-66
2021/10/13 12:58:46;;;;;;;10.27;4.40;;;14.10;99.20;;;;;;4984136;28;20038;-66
2021/10/13 13:01:12;;;;;;;5.13;2.53;;;14.10;99.10;;;;;;4985454;28;20034;-66
2021/10/13 13:03:37;;;;;;;7.78;2.33;;;14.30;99.70;;;;;;4984786;28;20034;-66
2021/10/13 13:06:03;;;;;;;33.33;9.30;;;;;;;;;;4981520;28;20038;-66
2021/10/13 13:08:29;;;;;;;82.07;20.92;;;;;;;;;;4977974;28;20030;-66
2021/10/13 13:10:55;;;;;;;77.05;22.23;;;;;;;;;;4978660;28;20047;-63
2021/10/13 13:13:21;;;;;;;12.02;3.70;;;15.10;98.00;;;;;;4983660;28;20026;-62
2021/10/13 13:15:46;;;;;;;68.18;15.45;;;15.00;97.80;;;;;;4981915;28;20387;-64
2021/10/13 13:18:12;;;;;;;57.90;13.95;;;;;;;;;;4983828;28;20092;-62
2021/10/13 13:20:38;;;;;;;138.23;32.10;;;15.70;99.90;;;;;;4984729;28;20741;-63
2021/10/13 13:23:03;;;;;;;189.23;48.35;;;16.10;98.90;;;;;;4985284;28;20030;-62
2021/10/13 13:25:30;;;;;;;30.00;8.30;;;;;;;;;;4984358;28;20027;-62
2021/10/13 13:27:55;;;;;;;74.15;19.77;;;;;;;;;;4981395;28;20030;-62
2021/10/13 13:30:21;;;;;;;220.30;74.30;;;;;;;;;;4983095;28;20030;-62
2021/10/13 13:32:47;;;;;;;256.85;85.85;;;14.00;98.70;;;;;;4984477;28;20026;-62
2021/10/13 13:35:13;;;;;;;313.08;105.57;;;14.10;99.40;;;;;;4984614;28;20034;-62
2021/10/13 13:37:39;;;;;;;288.70;90.20;;;;;;;;;;4983772;28;20537;-62
2021/10/13 13:40:04;;;;;;;24.20;9.18;;;14.50;97.30;;;;;;4985195;28;20518;-63
2021/10/13 13:42:30;;;;;;;19.58;9.73;;;15.10;99.80;;;;;;4984862;28;20113;-64
2021/10/13 13:44:55;;;;;;;125.40;88.82;;;14.90;96.90;;;;;;4984603;28;20084;-64
2021/10/13 13:47:21;;;;;;;52.78;36.88;;;14.90;96.60;;;;;;4984562;28;20056;-64
2021/10/13 13:49:47;;;;;;;9.15;4.68;;;14.90;99.70;;;;;;4999888;28;20049;-65
2021/10/13 13:52:12;;;;;;;4.85;3.70;;;14.60;99.30;;;;;;4984444;28;20042;-65
2021/10/13 13:54:38;;;;;;;2.42;1.55;;;16.10;97.00;;;;;;4975935;28;20039;-64
2021/10/13 13:57:03;;;;;;;1.63;1.02;;;15.00;95.90;;;;;;4982337;28;20046;-64
2021/10/13 13:59:29;;;;;;;3.03;1.60;;;15.10;95.00;;;;;;4983412;28;20042;-64